Time,TemperatureF,DewpointF,PressureIn,WindDirection,WindDirectionDegrees,WindSpeedMPH,WindSpeedGustMPH,Humidity,HourlyPrecipIn,Conditions,Clouds,dailyrainin,SolarRadiationWatts/m^2,SoftwareType,DateUTC
2015-07-01 00:03:00,82.6,75.1,30.15,ESE,119,0.0,0.0,78,0.00,,SCT055,0.00,0.00,VWS V15.00,2015-07-01 04:03:00,
2015-07-01 00:08:00,82.6,75.1,30.15,ESE,119,0.0,0.0,78,0.00,,SCT055,0.00,0.00,VWS V15.00,2015-07-01 04:08:00,
2015-07-01 00:13:00,82.6,75.1,30.16,NE,42,3.0,4.0,78,0.00,,SCT055,0.00,0.00,VWS V15.00,2015-07-01 04:13:00,
2015-07-01 00:18:00,82.4,74.1,30.17,NNE,25,12.0,13.0,76,0.00,,SCT055,0.00,0.00,VWS V15.00,2015-07-01 04:18:00,
2015-07-01 00:23:00,81.6,72.1,30.17,NNE,25,2.0,15.0,73,0.00,,SCT055,0.00,0.00,VWS V15.00,2015-07-01 04:23:00,
2015-07-01 00:28:00,81.2,69.6,30.18,NE,53,11.0,15.0,68,0.00,,SCT055,0.00,0.00,VWS V15.00,2015-07-01 04:28:00,
2015-07-01 00:33:00,80.5,66.3,30.18,ENE,61,12.0,18.0,62,0.00,,SCT055,0.00,0.00,VWS V15.00,2015-07-01 04:33:00,
2015-07-01 00:38:00,79.9,65.3,30.18,NNW,333,8.0,18.0,61,0.00,,SCT055,0.00,0.00,VWS V15.00,2015-07-01 04:38:00,
2015-07-01 00:43:00,79.3,64.7,30.18,NNE,27,4.0,18.0,61,0.00,,SCT055,0.00,0.00,VWS V15.00,2015-07-01 04:43:00,
2015-07-01 00:48:00,79.0,64.9,30.18,North,5,5.0,18.0,62,0.00,,SCT055,0.00,0.00,VWS V15.00,2015-07-01 04:48:00,
2015-07-01 00:53:00,78.8,65.2,30.17,NE,52,7.0,18.0,63,0.00,,SCT055,0.00,0.00,VWS V15.00,2015-07-01 04:53:00,
2015-07-01 00:58:00,78.7,65.1,30.17,NE,45,7.0,18.0,63,0.00,,SCT055,0.00,0.00,VWS V15.00,2015-07-01 04:58:00,
2015-07-01 01:03:00,78.5,64.9,30.16,NNE,31,4.0,11.0,63,0.00,,SCT055,0.00,0.00,VWS V15.00,2015-07-01 05:03:00,
2015-07-01 01:08:00,78.4,65.2,30.16,NE,48,3.0,11.0,64,0.00,,SCT055,0.00,0.00,VWS V15.00,2015-07-01 05:08:00,
2015-07-01 01:13:00,78.5,65.3,30.16,NE,42,1.0,11.0,64,0.00,,SCT055,0.00,0.00,VWS V15.00,2015-07-01 05:13:00,
2015-07-01 01:18:00,78.5,65.3,30.16,NE,52,2.0,11.0,64,0.00,,SCT055,0.00,0.00,VWS V15.00,2015-07-01 05:18:00,
2015-07-01 01:23:00,78.5,65.3,30.15,NE,49,2.0,11.0,64,0.00,,SCT055,0.00,0.00,VWS V15.00,2015-07-01 05:23:00,
2015-07-01 01:28:00,78.5,64.9,30.15,NE,48,0.0,11.0,63,0.00,,SCT055,0.00,0.00,VWS V15.00,2015-07-01 05:28:00,
2015-07-01 01:33:00,78.5,64.9,30.15,NE,48,0.0,3.0,63,0.00,,SCT055,0.00,0.00,VWS V15.00,2015-07-01 05:33:00,
2015-07-01 01:38:00,78.5,64.9,30.15,NE,48,1.0,3.0,63,0.00,,SCT055,0.00,0.00,VWS V15.00,2015-07-01 05:38:00,
2015-07-01 01:43:00,78.5,64.9,30.14,NE,48,0.0,4.0,63,0.00,,SCT055,0.00,0.00,VWS V15.00,2015-07-01 05:43:00,
2015-07-01 01:48:00,78.6,65.4,30.14,NE,48,0.0,4.0,64,0.00,,SCT055,0.00,0.00,VWS V15.00,2015-07-01 05:48:00,
2015-07-01 01:53:00,78.5,65.3,30.13,NE,48,0.0,4.0,64,0.00,,SCT055,0.00,0.00,VWS V15.00,2015-07-01 05:53:00,
2015-07-01 01:58:00,78.5,65.3,30.13,NE,48,0.0,4.0,64,0.00,,SCT055,0.00,0.00,VWS V15.00,2015-07-01 05:58:00,
2015-07-01 02:03:00,78.5,65.3,30.13,NE,48,0.0,0.0,64,0.00,,SCT055,0.00,0.00,VWS V15.00,2015-07-01 06:03:00,
2015-07-01 02:08:00,78.5,65.3,30.13,NE,48,2.0,3.0,64,0.00,,SCT055,0.00,0.00,VWS V15.00,2015-07-01 06:08:00,
2015-07-01 02:13:00,78.4,65.2,30.12,NE,48,0.0,3.0,64,0.00,,SCT055,0.00,0.00,VWS V15.00,2015-07-01 06:13:00,
2015-07-01 02:18:00,78.4,65.7,30.12,NE,48,0.0,3.0,65,0.00,,SCT055,0.00,0.00,VWS V15.00,2015-07-01 06:18:00,
2015-07-01 02:23:00,78.4,65.7,30.12,NE,48,0.0,3.0,65,0.00,,SCT055,0.00,0.00,VWS V15.00,2015-07-01 06:23:00,
2015-07-01 02:28:00,78.4,65.7,30.12,NE,48,0.0,3.0,65,0.00,,SCT055,0.00,0.00,VWS V15.00,2015-07-01 06:28:00,
2015-07-01 02:33:00,78.4,66.1,30.13,NE,48,0.0,0.0,66,0.00,,SCT055,0.00,0.00,VWS V15.00,2015-07-01 06:33:00,
2015-07-01 02:38:00,78.3,66.0,30.12,NE,48,0.0,0.0,66,0.00,,SCT055,0.00,0.00,VWS V15.00,2015-07-01 06:38:00,
2015-07-01 02:43:00,78.2,65.9,30.12,NE,48,0.0,0.0,66,0.00,,SCT055,0.00,0.00,VWS V15.00,2015-07-01 06:43:00,
2015-07-01 02:48:00,78.2,65.9,30.12,NE,48,0.0,0.0,66,0.00,,SCT055,0.00,0.00,VWS V15.00,2015-07-01 06:48:00,
2015-07-01 02:53:00,78.1,66.3,30.11,NE,48,0.0,0.0,67,0.00,,SCT055,0.00,0.00,VWS V15.00,2015-07-01 06:53:00,
2015-07-01 02:58:00,78.0,66.2,30.11,NE,48,0.0,0.0,67,0.00,,SCT055,0.00,0.00,VWS V15.00,2015-07-01 06:58:00,
2015-07-01 03:03:00,77.7,66.3,30.11,NE,48,0.0,0.0,68,0.00,,SCT055,0.00,0.00,VWS V15.00,2015-07-01 07:03:00,